Pms Mayo — 6ACR — position and weather

sailwx.info

Track history (hours):
 
Tides and Currents Weather Stations Pressure Air Temp Water Temp Dewpoint Dewpoint Depression Visibility Wind Speed Wind Dir Waves Ship Positions

Pms Mayo

Last reported at 2018-Apr-23 20:16 UTC. Time now 2018-Apr-24 02:38 UTC.
Position N 31°58' E 032°23'.

Length 91 m; draft 6.5 m.

Type: Other ship. MMSI: 622122450.

Date/timePositionNaut miles runAvg speedWind from/ knotsBaromVisibWave heightAir tempDewpointWater temp
2018-Apr-23 20:16N 31°58' E 032°23'0 1.2
2018-Apr-23 20:00N 31°58' E 032°23'  
2018-Apr-19 17:19N 32°57' E 032°24'2 1.4
2018-Apr-19 15:57N 32°59' E 032°24'0 0.3
2018-Apr-19 15:18N 32°59' E 032°24'0 0.5
2018-Apr-19 15:00N 32°59' E 032°24'0 0.3
2018-Apr-19 14:30N 32°59' E 032°24'1 0.3
2018-Apr-19 11:30N 33°00' E 032°24'0 0.4
2018-Apr-19 10:38N 33°01' E 032°23'0 0.2
2018-Apr-19 10:23N 33°01' E 032°23'0 0.1
2018-Apr-19 09:51N 33°01' E 032°23'0 0.1
2018-Apr-19 09:30N 33°01' E 032°23'0 0.5
2018-Apr-19 08:59N 33°01' E 032°23'0 0.2
2018-Apr-19 08:23N 33°01' E 032°23'0 0.2
2018-Apr-19 07:58N 33°01' E 032°23'0 0.1
2018-Apr-19 07:26N 33°01' E 032°23'0 0.0
2018-Apr-19 06:33N 33°01' E 032°23'0 0.0
2018-Apr-19 06:29N 33°01' E 032°23'0 0.1
2018-Apr-19 06:00N 33°01' E 032°23'0 0.0
2018-Apr-19 04:32N 33°01' E 032°23'0 0.0
2018-Apr-19 04:30N 33°01' E 032°23'1 0.4
2018-Apr-19 01:07N 33°01' E 032°22'0 0.0
2018-Apr-19 00:55N 33°01' E 032°22'0 0.0
2018-Apr-19 00:23N 33°01' E 032°22'0 0.0
2018-Apr-19 00:00N 33°01' E 032°22'0 0.0
2018-Apr-18 23:22N 33°01' E 032°22'0 0.0
2018-Apr-18 23:00N 33°01' E 032°22'0 0.0
2018-Apr-18 22:29N 33°01' E 032°22'0 0.0
2018-Apr-18 22:00N 33°01' E 032°22'0 0.0
2018-Apr-18 21:30N 33°01' E 032°22'0 0.0
2018-Apr-18 21:00N 33°01' E 032°22'0 0.0
2018-Apr-18 20:30N 33°01' E 032°22'0 0.0
2018-Apr-18 20:00N 33°01' E 032°22'0 0.0
2018-Apr-18 19:30N 33°01' E 032°22'0 0.0
2018-Apr-18 19:00N 33°01' E 032°22'0 0.0
2018-Apr-18 18:30N 33°01' E 032°22'0 0.0
2018-Apr-18 18:00N 33°01' E 032°22'0 0.0
2018-Apr-18 17:30N 33°01' E 032°22'0 0.0
2018-Apr-18 17:00N 33°01' E 032°22'0 0.0
2018-Apr-18 16:30N 33°01' E 032°22'0 0.0
2018-Apr-18 16:00N 33°01' E 032°22'0 0.0
2018-Apr-18 15:30N 33°01' E 032°22'0 0.0
2018-Apr-18 15:00N 33°01' E 032°22'0 0.0
2018-Apr-18 14:30N 33°01' E 032°22'0 0.0
2018-Apr-18 14:00N 33°01' E 032°22'0 0.4
2018-Apr-18 13:30N 33°01' E 032°22'0 0.5
2018-Apr-18 13:00N 33°01' E 032°22'0 0.5
2018-Apr-18 12:30N 33°00' E 032°22'0 0.2
2018-Apr-18 12:00N 33°00' E 032°21'0 0.1
2018-Apr-18 11:30N 33°00' E 032°21'0 0.0
2018-Apr-18 11:00N 33°00' E 032°21'0 0.5
2018-Apr-18 10:28N 33°00' E 032°22'2 3.7
2018-Apr-18 09:59N 32°59' E 032°24'0 0.0
2018-Apr-18 09:30N 32°59' E 032°24'0 0.0
2018-Apr-18 09:00N 32°59' E 032°24'0 0.2
2018-Apr-18 08:30N 32°59' E 032°24'0 0.1
2018-Apr-18 04:40N 32°59' E 032°24'0 0.0
2018-Apr-18 04:30N 32°59' E 032°24'0 0.0
2018-Apr-18 04:00N 32°59' E 032°24'0 0.2
2018-Apr-18 03:05N 32°59' E 032°24'0 0.2
2018-Apr-18 03:00N 32°59' E 032°24'2 3.3
2018-Apr-18 02:25N 32°57' E 032°24'410.4
2018-Apr-18 02:00N 32°53' E 032°23'510.5
2018-Apr-18 01:30N 32°48' E 032°21'510.9
2018-Apr-18 01:00N 32°42' E 032°20'811.2
2018-Apr-18 00:15N 32°34' E 032°19'510.9
2018-Apr-17 23:49N 32°29' E 032°18'710.5
2018-Apr-17 23:07N 32°22' E 032°16'310.5
2018-Apr-17 22:48N 32°19' E 032°15'810.4
2018-Apr-17 22:02N 32°11' E 032°13'010.3
2018-Apr-17 22:00N 32°11' E 032°13'510.7
2018-Apr-17 21:30N 32°06' E 032°12'510.8
2018-Apr-17 21:00N 32°00' E 032°11'15 2.7
2018-Apr-17 15:17N 31°45' E 032°08'0 0.0
2018-Apr-17 14:58N 31°45' E 032°08'0 0.1
2018-Apr-17 14:28N 31°45' E 032°08'1 0.4
2018-Apr-17 10:46N 31°44' E 032°09'310.6
2018-Apr-17 10:30N 31°42' E 032°10'710.6
2018-Apr-17 09:54N 31°36' E 032°14'1110.6
2018-Apr-17 08:51N 31°27' E 032°21'310.4
2018-Apr-17 08:30N 31°23' E 032°22'510.0
2018-Apr-17 08:00N 31°18' E 032°21'4 8.3
2018-Apr-17 07:30N 31°15' E 032°18'  
2018-Apr-14 20:13N 32°43' E 032°23'2 9.4
2018-Apr-14 20:00N 32°45' E 032°23'13 9.5
2018-Apr-14 18:36N 32°59' E 032°24'0 3.7
2018-Apr-14 18:30N 32°59' E 032°24'0 0.0
2018-Apr-14 18:00N 32°59' E 032°24'0 0.0
2018-Apr-14 17:30N 32°59' E 032°24'0 0.0
2018-Apr-14 17:00N 32°59' E 032°24'0 0.1
2018-Apr-14 16:30N 32°59' E 032°24'0 0.0
2018-Apr-14 16:00N 32°59' E 032°24'0 0.0
2018-Apr-14 15:11N 32°59' E 032°24'0 0.2
2018-Apr-14 15:00N 32°59' E 032°24'2 0.8
2018-Apr-14 12:08N 33°00' E 032°21'0 0.0
2018-Apr-14 11:39N 33°00' E 032°21'0 0.0
2018-Apr-14 10:59N 33°00' E 032°21'0 0.0
2018-Apr-14 10:30N 33°00' E 032°21'0 0.0
2018-Apr-14 10:00N 33°00' E 032°21'1 2.4
2018-Apr-14 09:30N 33°01' E 032°22'0 0.0
2018-Apr-14 09:00N 33°01' E 032°22'  
Track history (hours):
 
Tides and Currents Weather Stations Pressure Air Temp Water Temp Dewpoint Dewpoint Depression Visibility Wind Speed Wind Dir Waves Ship Positions

Pms Mayo

Last reported at 2018-Apr-23 20:16 UTC. Time now 2018-Apr-24 02:38 UTC.
Position N 31°58' E 032°23'.

Length 91 m; draft 6.5 m.

Type: Other ship. MMSI: 622122450.

Date/timePositionNaut miles runAvg speedWind from/ knotsBaromVisibWave heightAir tempDewpointWater temp
2018-Apr-23 20:16N 31°58' E 032°23'0 1.2
2018-Apr-23 20:00N 31°58' E 032°23'  
2018-Apr-19 17:19N 32°57' E 032°24'2 1.4
2018-Apr-19 15:57N 32°59' E 032°24'0 0.3
2018-Apr-19 15:18N 32°59' E 032°24'0 0.5
2018-Apr-19 15:00N 32°59' E 032°24'0 0.3
2018-Apr-19 14:30N 32°59' E 032°24'1 0.3
2018-Apr-19 11:30N 33°00' E 032°24'0 0.4
2018-Apr-19 10:38N 33°01' E 032°23'0 0.2
2018-Apr-19 10:23N 33°01' E 032°23'0 0.1
2018-Apr-19 09:51N 33°01' E 032°23'0 0.1
2018-Apr-19 09:30N 33°01' E 032°23'0 0.5
2018-Apr-19 08:59N 33°01' E 032°23'0 0.2
2018-Apr-19 08:23N 33°01' E 032°23'0 0.2
2018-Apr-19 07:58N 33°01' E 032°23'0 0.1
2018-Apr-19 07:26N 33°01' E 032°23'0 0.0
2018-Apr-19 06:33N 33°01' E 032°23'0 0.0
2018-Apr-19 06:29N 33°01' E 032°23'0 0.1
2018-Apr-19 06:00N 33°01' E 032°23'0 0.0
2018-Apr-19 04:32N 33°01' E 032°23'0 0.0
2018-Apr-19 04:30N 33°01' E 032°23'1 0.4
2018-Apr-19 01:07N 33°01' E 032°22'0 0.0
2018-Apr-19 00:55N 33°01' E 032°22'0 0.0
2018-Apr-19 00:23N 33°01' E 032°22'0 0.0
2018-Apr-19 00:00N 33°01' E 032°22'0 0.0
2018-Apr-18 23:22N 33°01' E 032°22'0 0.0
2018-Apr-18 23:00N 33°01' E 032°22'0 0.0
2018-Apr-18 22:29N 33°01' E 032°22'0 0.0
2018-Apr-18 22:00N 33°01' E 032°22'0 0.0
2018-Apr-18 21:30N 33°01' E 032°22'0 0.0
2018-Apr-18 21:00N 33°01' E 032°22'0 0.0
2018-Apr-18 20:30N 33°01' E 032°22'0 0.0
2018-Apr-18 20:00N 33°01' E 032°22'0 0.0
2018-Apr-18 19:30N 33°01' E 032°22'0 0.0
2018-Apr-18 19:00N 33°01' E 032°22'0 0.0
2018-Apr-18 18:30N 33°01' E 032°22'0 0.0
2018-Apr-18 18:00N 33°01' E 032°22'0 0.0
2018-Apr-18 17:30N 33°01' E 032°22'0 0.0
2018-Apr-18 17:00N 33°01' E 032°22'0 0.0
2018-Apr-18 16:30N 33°01' E 032°22'0 0.0
2018-Apr-18 16:00N 33°01' E 032°22'0 0.0
2018-Apr-18 15:30N 33°01' E 032°22'0 0.0
2018-Apr-18 15:00N 33°01' E 032°22'0 0.0
2018-Apr-18 14:30N 33°01' E 032°22'0 0.0
2018-Apr-18 14:00N 33°01' E 032°22'0 0.4
2018-Apr-18 13:30N 33°01' E 032°22'0 0.5
2018-Apr-18 13:00N 33°01' E 032°22'0 0.5
2018-Apr-18 12:30N 33°00' E 032°22'0 0.2
2018-Apr-18 12:00N 33°00' E 032°21'0 0.1
2018-Apr-18 11:30N 33°00' E 032°21'0 0.0
2018-Apr-18 11:00N 33°00' E 032°21'0 0.5
2018-Apr-18 10:28N 33°00' E 032°22'2 3.7
2018-Apr-18 09:59N 32°59' E 032°24'0 0.0
2018-Apr-18 09:30N 32°59' E 032°24'0 0.0
2018-Apr-18 09:00N 32°59' E 032°24'0 0.2
2018-Apr-18 08:30N 32°59' E 032°24'0 0.1
2018-Apr-18 04:40N 32°59' E 032°24'0 0.0
2018-Apr-18 04:30N 32°59' E 032°24'0 0.0
2018-Apr-18 04:00N 32°59' E 032°24'0 0.2
2018-Apr-18 03:05N 32°59' E 032°24'0 0.2
2018-Apr-18 03:00N 32°59' E 032°24'2 3.3
2018-Apr-18 02:25N 32°57' E 032°24'410.4
2018-Apr-18 02:00N 32°53' E 032°23'510.5
2018-Apr-18 01:30N 32°48' E 032°21'510.9
2018-Apr-18 01:00N 32°42' E 032°20'811.2
2018-Apr-18 00:15N 32°34' E 032°19'510.9
2018-Apr-17 23:49N 32°29' E 032°18'710.5
2018-Apr-17 23:07N 32°22' E 032°16'310.5
2018-Apr-17 22:48N 32°19' E 032°15'810.4
2018-Apr-17 22:02N 32°11' E 032°13'010.3
2018-Apr-17 22:00N 32°11' E 032°13'510.7
2018-Apr-17 21:30N 32°06' E 032°12'510.8
2018-Apr-17 21:00N 32°00' E 032°11'15 2.7
2018-Apr-17 15:17N 31°45' E 032°08'0 0.0
2018-Apr-17 14:58N 31°45' E 032°08'0 0.1
2018-Apr-17 14:28N 31°45' E 032°08'1 0.4
2018-Apr-17 10:46N 31°44' E 032°09'310.6
2018-Apr-17 10:30N 31°42' E 032°10'710.6
2018-Apr-17 09:54N 31°36' E 032°14'1110.6
2018-Apr-17 08:51N 31°27' E 032°21'310.4
2018-Apr-17 08:30N 31°23' E 032°22'510.0
2018-Apr-17 08:00N 31°18' E 032°21'4 8.3
2018-Apr-17 07:30N 31°15' E 032°18'  
2018-Apr-14 20:13N 32°43' E 032°23'2 9.4
2018-Apr-14 20:00N 32°45' E 032°23'13 9.5
2018-Apr-14 18:36N 32°59' E 032°24'0 3.7
2018-Apr-14 18:30N 32°59' E 032°24'0 0.0
2018-Apr-14 18:00N 32°59' E 032°24'0 0.0
2018-Apr-14 17:30N 32°59' E 032°24'0 0.0
2018-Apr-14 17:00N 32°59' E 032°24'0 0.1
2018-Apr-14 16:30N 32°59' E 032°24'0 0.0
2018-Apr-14 16:00N 32°59' E 032°24'0 0.0
2018-Apr-14 15:11N 32°59' E 032°24'0 0.2
2018-Apr-14 15:00N 32°59' E 032°24'2 0.8
2018-Apr-14 12:08N 33°00' E 032°21'0 0.0
2018-Apr-14 11:39N 33°00' E 032°21'0 0.0
2018-Apr-14 10:59N 33°00' E 032°21'0 0.0
2018-Apr-14 10:30N 33°00' E 032°21'0 0.0
2018-Apr-14 10:00N 33°00' E 032°21'1 2.4
2018-Apr-14 09:30N 33°01' E 032°22'0 0.0
2018-Apr-14 09:00N 33°01' E 032°22'  

Dump ship's entire track history